Time;durP1;ratioP1;P1;durP2;ratioP2;P2;SDS_P1;SDS_P2;PMS_P1;PMS_P2;Temp;Humidity;BMP_temperature;BMP_pressure;BME280_temperature;BME280_humidity;BME280_pressure;Samples;Min_cycle;Max_cycle;Signal;HPM_P1;HPM_P2
2022/01/08 00:00:09;;;;;;;6.43;4.93;;;;;;;;;;5007078;28;20543;-57
2022/01/08 00:02:35;;;;;;;6.13;4.72;;;;;;;;;;5007035;28;20299;-54
2022/01/08 00:05:00;;;;;;;6.30;4.90;;;;;;;;;;5006788;28;20069;-56
2022/01/08 00:07:25;;;;;;;5.88;4.90;;;;;;;;;;5007026;28;20277;-59
2022/01/08 00:09:51;;;;;;;6.13;4.80;;;;;;;;;;5006981;28;20029;-60
2022/01/08 00:12:16;;;;;;;5.87;4.40;;;;;;;;;;5006653;28;20037;-58
2022/01/08 00:14:41;;;;;;;5.57;4.63;;;;;;;;;;5005249;28;20121;-56
2022/01/08 00:17:06;;;;;;;5.80;4.68;;;;;;;;;;5006511;28;20429;-55
2022/01/08 00:19:32;;;;;;;6.30;4.93;;;;;;;;;;5006689;28;20041;-54
2022/01/08 00:21:57;;;;;;;5.63;4.33;;;;;;;;;;5006615;28;20037;-57
2022/01/08 00:24:22;;;;;;;5.53;4.23;;;;;;;;;;5006480;28;20305;-59
2022/01/08 00:26:47;;;;;;;5.72;4.70;;;;;;;;;;5006583;28;20037;-55
2022/01/08 00:29:13;;;;;;;5.43;4.05;;;;;;;;;;5006375;28;20424;-54
2022/01/08 00:31:38;;;;;;;5.67;4.30;;;;;;;;;;5006677;28;20022;-59
2022/01/08 00:34:03;;;;;;;5.10;4.53;;;;;;;;;;5006273;28;20284;-55
2022/01/08 00:36:28;;;;;;;5.27;4.20;;;;;;;;;;5006649;28;20622;-57
2022/01/08 00:38:54;;;;;;;5.82;4.20;;;;;;;;;;5005909;28;20583;-59
2022/01/08 00:41:19;;;;;;;5.80;4.13;;;;;;;;;;5006511;28;20037;-58
2022/01/08 00:43:44;;;;;;;4.90;4.00;;;;;;;;;;5006276;28;20044;-60
2022/01/08 00:46:09;;;;;;;5.37;4.03;;;;;;;;;;5006316;28;20025;-58
2022/01/08 00:48:34;;;;;;;6.47;4.50;;;;;;;;;;5006153;28;20264;-57
2022/01/08 00:51:00;;;;;;;5.50;4.00;;;;;;;;;;5005757;28;20316;-59
2022/01/08 00:53:25;;;;;;;5.70;4.07;;;;;;;;;;5006087;28;20075;-57
2022/01/08 00:55:50;;;;;;;4.85;3.95;;;;;;;;;;5006215;28;20276;-55
2022/01/08 00:58:15;;;;;;;5.77;4.00;;;;;;;;;;5005808;28;20030;-59
2022/01/08 01:00:41;;;;;;;4.43;3.95;;;;;;;;;;5005950;28;20021;-59
2022/01/08 01:03:06;;;;;;;5.15;3.95;;;;;;;;;;5005682;28;20083;-59
2022/01/08 01:05:31;;;;;;;4.65;4.00;;;;;;;;;;5005878;28;20046;-57
2022/01/08 01:07:57;;;;;;;4.50;3.60;;;;;;;;;;5005973;28;20026;-55
2022/01/08 01:10:22;;;;;;;4.73;3.80;;;;;;;;;;5005974;28;20026;-52
2022/01/08 01:12:47;;;;;;;4.17;3.70;;;;;;;;;;5004959;28;20265;-55
2022/01/08 01:15:13;;;;;;;5.22;4.07;;;;;;;;;;5005616;28;20346;-52
2022/01/08 01:17:38;;;;;;;5.38;3.83;;;;;;;;;;5006410;28;20524;-57
2022/01/08 01:20:04;;;;;;;4.47;3.70;;;;;;;;;;5006564;28;20571;-57
2022/01/08 01:22:40;;;;;;;4.25;3.70;;;;;;;;;;5006416;28;20050;-54
2022/01/08 01:25:07;;;;;;;4.50;3.45;;;;;;;;;;5006560;28;20405;-56
2022/01/08 01:30:16;;;;;;;4.47;3.47;;;;;;;;;;5003691;28;20014;-54
2022/01/08 01:41:23;;;;;;;4.50;3.67;;;;;;;;;;5006142;28;20025;-57
2022/01/08 01:48:57;;;;;;;4.40;3.58;;;;;;;;;;5006923;28;20130;-54
2022/01/08 01:51:22;;;;;;;4.67;3.40;;;;;;;;;;5006924;28;20475;-59
2022/01/08 01:53:48;;;;;;;4.70;3.20;;;;;;;;;;5005033;28;20599;-55
2022/01/08 01:56:17;;;;;;;4.20;3.28;;;;;;;;;;5005672;28;20029;-58
2022/01/08 01:58:42;;;;;;;4.80;3.47;;;;;;;;;;5005331;28;20133;-59
2022/01/08 02:01:07;;;;;;;4.13;3.22;;;;;;;;;;5004813;28;20533;-60
2022/01/08 02:03:32;;;;;;;4.47;3.50;;;;;;;;;;5004958;28;20029;-58
2022/01/08 02:05:58;;;;;;;4.03;3.22;;;;;;;;;;5005096;28;20097;-53
2022/01/08 02:08:23;;;;;;;4.00;3.00;;;;;;;;;;5005366;28;20018;-54
2022/01/08 02:10:48;;;;;;;4.37;3.20;;;;;;;;;;5004706;28;20851;-58
2022/01/08 02:13:23;;;;;;;3.90;3.15;;;;;;;;;;5001933;28;20485;-58
2022/01/08 02:15:52;;;;;;;4.13;3.00;;;;;;;;;;5004592;28;20033;-55
2022/01/08 02:18:17;;;;;;;4.20;3.08;;;;;;;;;;5004688;28;20037;-54
2022/01/08 02:20:42;;;;;;;3.80;2.90;;;;;;;;;;5004652;28;20030;-56
2022/01/08 02:23:08;;;;;;;3.90;2.88;;;;;;;;;;5003778;28;20443;-56
2022/01/08 02:25:33;;;;;;;4.00;3.03;;;;;;;;;;5004451;28;20052;-55
2022/01/08 02:27:58;;;;;;;3.50;2.87;;;;;;;;;;5004431;28;20030;-54
2022/01/08 02:30:23;;;;;;;3.93;2.90;;;;;;;;;;5004589;28;20273;-56
2022/01/08 02:32:49;;;;;;;3.80;3.07;;;;;;;;;;5004182;28;20261;-55
2022/01/08 02:35:16;;;;;;;3.40;2.63;;;;;;;;;;5004095;28;20668;-57
2022/01/08 02:37:41;;;;;;;4.85;3.05;;;;;;;;;;5004383;28;20030;-57
2022/01/08 02:40:07;;;;;;;3.30;2.70;;;;;;;;;;5004415;28;20512;-58
2022/01/08 02:42:39;;;;;;;3.72;2.83;;;;;;;;;;5004134;28;20747;-55
2022/01/08 02:45:05;;;;;;;3.60;2.65;;;;;;;;;;5003892;28;20049;-58
2022/01/08 02:47:30;;;;;;;3.80;2.88;;;;;;;;;;5004349;28;20026;-59
2022/01/08 02:49:55;;;;;;;3.93;3.43;;;;;;;;;;5003975;28;20477;-58
2022/01/08 02:52:23;;;;;;;3.50;2.53;;;;;;;;;;5004013;28;20146;-57
2022/01/08 02:54:49;;;;;;;3.40;2.60;;;;;;;;;;5004195;28;20273;-58
2022/01/08 02:57:14;;;;;;;3.50;2.50;;;;;;;;;;5003716;28;20461;-56
2022/01/08 02:59:39;;;;;;;4.20;2.80;;;;;;;;;;5004428;28;20277;-57
2022/01/08 03:02:04;;;;;;;3.53;2.73;;;;;;;;;;5004075;28;20261;-58
2022/01/08 03:04:29;;;;;;;2.87;2.50;;;;;;;;;;5003886;28;20064;-57
2022/01/08 03:06:55;;;;;;;3.70;2.57;;;;;;;;;;5004282;28;20291;-58
2022/01/08 03:09:20;;;;;;;3.28;2.45;;;;;;;;;;5003652;28;20686;-58
2022/01/08 03:11:45;;;;;;;3.23;2.50;;;;;;;;;;5003888;28;20062;-53
2022/01/08 03:14:11;;;;;;;2.90;2.45;;;;;;;;;;5001128;28;20272;-53
2022/01/08 03:16:36;;;;;;;3.28;2.55;;;;;;;;;;5003845;28;20108;-59
2022/01/08 03:19:09;;;;;;;4.30;2.83;;;;;;;;;;5003518;28;20038;-58
2022/01/08 03:21:37;;;;;;;3.78;2.50;;;;;;;;;;5003632;28;20283;-54
2022/01/08 03:24:05;;;;;;;3.20;2.40;;;;;;;;;;5006539;28;20172;-57
2022/01/08 03:26:31;;;;;;;2.90;2.33;;;;;;;;;;5007533;28;20504;-58
2022/01/08 03:28:56;;;;;;;3.20;2.37;;;;;;;;;;5007475;28;20017;-55
2022/01/08 03:31:22;;;;;;;3.22;2.50;;;;;;;;;;5006908;28;20850;-56
2022/01/08 03:33:47;;;;;;;3.20;2.60;;;;;;;;;;5007277;28;20036;-54
2022/01/08 03:36:12;;;;;;;3.45;2.40;;;;;;;;;;5007730;28;20496;-57
2022/01/08 03:38:37;;;;;;;3.17;2.15;;;;;;;;;;5007429;28;20030;-57
2022/01/08 03:41:03;;;;;;;2.80;2.03;;;;;;;;;;5005777;28;20018;-58
2022/01/08 03:43:28;;;;;;;3.08;2.20;;;;;;;;;;5007170;28;20101;-56
2022/01/08 03:45:53;;;;;;;2.88;2.30;;;;;;;;;;5007066;28;20045;-56
2022/01/08 03:50:44;;;;;;;3.00;2.40;;;;;;;;;;5007128;28;20316;-58
2022/01/08 03:53:09;;;;;;;3.33;2.35;;;;;;;;;;5006643;28;20034;-55
2022/01/08 03:55:35;;;;;;;2.45;2.20;;;;;;;;;;5006760;28;20045;-54
2022/01/08 03:58:00;;;;;;;2.97;2.20;;;;;;;;;;5006981;28;20022;-57
2022/01/08 04:00:25;;;;;;;2.83;2.40;;;;;;;;;;5007095;28;20038;-55
2022/01/08 04:02:52;;;;;;;3.27;2.03;;;;;;;;;;5006459;28;20091;-54
2022/01/08 04:05:17;;;;;;;2.53;2.15;;;;;;;;;;5006496;28;20100;-58
2022/01/08 04:07:42;;;;;;;3.00;2.30;;;;;;;;;;5006794;28;20034;-57
2022/01/08 04:10:07;;;;;;;3.05;2.40;;;;;;;;;;5006918;28;20033;-57
2022/01/08 04:12:46;;;;;;;2.70;2.10;;;;;;;;;;5006261;28;20483;-54
2022/01/08 04:17:49;;;;;;;3.08;2.35;;;;;;;;;;5006618;28;20128;-55
2022/01/08 04:20:14;;;;;;;2.90;2.30;;;;;;;;;;5006610;28;20096;-56
2022/01/08 04:22:39;;;;;;;2.63;1.90;;;;;;;;;;5005991;28;20463;-52
2022/01/08 04:25:05;;;;;;;2.50;2.03;;;;;;;;;;5006125;28;20579;-59
2022/01/08 04:27:30;;;;;;;2.33;1.88;;;;;;;;;;5006331;28;20544;-52
2022/01/08 04:29:55;;;;;;;2.53;1.90;;;;;;;;;;5006423;28;20699;-54
2022/01/08 04:32:20;;;;;;;3.03;2.30;;;;;;;;;;5006097;28;20287;-56
2022/01/08 04:34:46;;;;;;;2.77;1.90;;;;;;;;;;5006040;28;20030;-59
2022/01/08 04:37:11;;;;;;;2.60;1.85;;;;;;;;;;5005833;28;20281;-54
2022/01/08 04:39:36;;;;;;;2.77;2.03;;;;;;;;;;5006724;28;20087;-56
2022/01/08 04:42:01;;;;;;;3.00;2.00;;;;;;;;;;5005906;28;20284;-59
2022/01/08 04:44:27;;;;;;;2.63;2.13;;;;;;;;;;4997254;28;20042;-57
2022/01/08 04:46:52;;;;;;;3.13;1.83;;;;;;;;;;5001905;28;20029;-59
2022/01/08 04:49:17;;;;;;;2.73;1.97;;;;;;;;;;5005712;28;20277;-58
2022/01/08 04:51:42;;;;;;;2.47;1.90;;;;;;;;;;5006157;28;20275;-59
2022/01/08 04:54:08;;;;;;;2.83;2.10;;;;;;;;;;5005420;28;20790;-59
2022/01/08 04:56:33;;;;;;;3.13;1.93;;;;;;;;;;5006111;28;20615;-57
2022/01/08 04:58:58;;;;;;;2.97;2.05;;;;;;;;;;5005869;28;20551;-54
2022/01/08 05:01:23;;;;;;;2.57;1.77;;;;;;;;;;5005401;28;20022;-58
2022/01/08 05:03:49;;;;;;;2.42;1.90;;;;;;;;;;4992967;28;20269;-58
2022/01/08 05:06:14;;;;;;;2.90;2.00;;;;;;;;;;4986898;28;20026;-59
2022/01/08 05:08:39;;;;;;;3.43;2.63;;;;;;;;;;4985607;28;20035;-58
2022/01/08 05:11:04;;;;;;;2.47;2.10;;;;;;;;;;4989521;28;20360;-55
2022/01/08 05:13:29;;;;;;;2.30;1.70;;;;;;;;;;4989314;28;20116;-58
2022/01/08 05:15:55;;;;;;;2.55;1.65;;;;;;;;;;4987055;28;20104;-59
2022/01/08 05:18:22;;;;;;;2.28;1.40;;;;;;;;;;4986947;28;20034;-58
2022/01/08 05:20:55;;;;;;;2.10;1.65;;;;;;;;;;4986357;28;20477;-55
2022/01/08 05:23:21;;;;;;;2.42;1.85;;;;;;;;;;4987156;28;20058;-56
2022/01/08 05:25:46;;;;;;;2.33;1.80;;;;;;;;;;4987568;28;20026;-59
2022/01/08 05:28:11;;;;;;;2.40;1.47;;;;;;;;;;4985829;28;20049;-57
2022/01/08 05:30:36;;;;;;;2.07;1.60;;;;;;;;;;4986320;28;20262;-55
2022/01/08 05:33:02;;;;;;;2.50;1.63;;;;;;;;;;4986053;28;20032;-55
2022/01/08 05:35:27;;;;;;;2.43;1.83;;;;;;;;;;4987226;28;20109;-54
2022/01/08 05:37:53;;;;;;;1.88;1.40;;;;;;;;;;4985656;28;20102;-57
2022/01/08 05:40:18;;;;;;;1.98;1.38;;;;;;;;;;4985986;28;20106;-57
2022/01/08 05:42:43;;;;;;;2.53;1.50;;;;;;;;;;4985621;28;20481;-56
2022/01/08 05:45:09;;;;;;;2.80;1.83;;;;;;;;;;4985667;28;20038;-55
2022/01/08 05:47:35;;;;;;;1.90;1.45;;;;;;;;;;4985848;28;20026;-56
2022/01/08 05:50:00;;;;;;;2.20;1.52;;;;;;;;;;4985450;28;20014;-55
2022/01/08 05:52:25;;;;;;;1.90;1.40;;;;;;;;;;4985487;28;20022;-52
2022/01/08 05:54:50;;;;;;;2.10;1.40;;;;;;;;;;4999125;28;20104;-54
2022/01/08 05:57:16;;;;;;;1.83;1.67;;;;;;;;;;5003716;28;20064;-56
2022/01/08 05:59:41;;;;;;;1.97;1.43;;;;;;;;;;5004838;28;20279;-51
2022/01/08 06:02:08;;;;;;;2.20;1.57;;;;;;;;;;5004533;28;20014;-53
2022/01/08 06:04:33;;;;;;;1.83;1.08;;;;;;;;;;5004788;28;20301;-57
2022/01/08 06:06:59;;;;;;;2.25;1.60;;;;;;;;;;5004811;28;20048;-57
2022/01/08 06:09:24;;;;;;;1.70;1.37;;;;;;;;;;5004432;28;20025;-56
2022/01/08 06:11:49;;;;;;;2.23;1.30;;;;;;;;;;5004558;28;20018;-58
2022/01/08 06:14:14;;;;;;;2.13;1.50;;;;;;;;;;5001074;28;20336;-56
2022/01/08 06:16:39;;;;;;;1.48;1.17;;;;;;;;;;5004472;28;20378;-56
2022/01/08 06:19:06;;;;;;;1.70;1.20;;;;;;;;;;4996030;28;20109;-56
2022/01/08 06:21:31;;;;;;;1.60;1.30;;;;;;;;;;4985542;28;20290;-57
2022/01/08 06:23:56;;;;;;;1.73;1.30;;;;;;;;;;4984520;28;20076;-59
2022/01/08 06:26:22;;;;;;;1.75;1.30;;;;;;;;;;4984766;28;20108;-55
2022/01/08 06:28:49;;;;;;;1.73;1.30;;;;;;;;;;4984924;28;20068;-56
2022/01/08 06:31:14;;;;;;;1.98;1.65;;;;;;;;;;4985438;28;20312;-55
2022/01/08 06:33:39;;;;;;;1.52;1.10;;;;;;;;;;4988826;28;20481;-54
2022/01/08 06:36:04;;;;;;;1.47;1.20;;;;;;;;;;4984661;28;20034;-53
2022/01/08 06:38:30;;;;;;;2.13;1.40;;;;;;;;;;4984929;28;20053;-54
2022/01/08 06:40:55;;;;;;;1.77;1.13;;;;;;;;;;4984920;28;20097;-58
2022/01/08 06:43:20;;;;;;;1.95;1.42;;;;;;;;;;4987046;28;20301;-55
2022/01/08 06:45:45;;;;;;;1.80;1.30;;;;;;;;;;4984788;28;20042;-53
2022/01/08 06:48:11;;;;;;;1.80;1.33;;;;;;;;;;4985796;28;20268;-57
2022/01/08 06:50:36;;;;;;;1.50;1.17;;;;;;;;;;4983728;28;20018;-57
2022/01/08 06:53:01;;;;;;;2.60;1.40;;;;;;;;;;4999506;28;20026;-54
2022/01/08 06:55:27;;;;;;;2.10;1.20;;;;;;;;;;4987873;28;20030;-57
2022/01/08 06:57:54;;;;;;;3.47;1.23;;;;;;;;;;5007944;28;20108;-58
2022/01/08 07:00:19;;;;;;;1.55;1.02;;;;;;;;;;4997011;28;20069;-54
2022/01/08 07:02:45;;;;;;;2.00;1.15;;;;;;;;;;4993094;28;20112;-58
2022/01/08 07:05:10;;;;;;;2.85;1.05;;;;;;;;;;4991248;28;20032;-56
2022/01/08 07:07:35;;;;;;;1.50;1.07;;;;;;;;;;4991917;28;20018;-56
2022/01/08 07:10:00;;;;;;;2.33;1.60;;;;;;;;;;5005397;28;20275;-55
2022/01/08 07:12:26;;;;;;;3.23;2.43;;;;;;;;;;5001947;28;20061;-60
2022/01/08 07:14:51;;;;;;;5.00;4.33;;;;;;;;;;4993118;28;20257;-54
2022/01/08 07:17:16;;;;;;;6.77;5.20;;;;;;;;;;5006404;28;20044;-55
2022/01/08 07:19:41;;;;;;;6.33;4.83;;;;;;;;;;5007251;28;20052;-57
2022/01/08 07:22:06;;;;;;;6.05;5.03;;;;;;;;;;4990355;28;20719;-57
2022/01/08 07:24:32;;;;;;;6.13;4.87;;;;;;;;;;5000169;28;20408;-56
2022/01/08 07:26:57;;;;;;;6.23;4.33;;;;;;;;;;5008401;28;20408;-56
2022/01/08 07:29:22;;;;;;;7.00;4.40;;;;;;;;;;5008299;28;20404;-56
2022/01/08 07:31:47;;;;;;;5.27;4.13;;;;;;;;;;5007826;28;20273;-56
2022/01/08 07:34:13;;;;;;;5.37;4.27;;;;;;;;;;5005159;28;20025;-56
2022/01/08 07:36:38;;;;;;;4.85;4.03;;;;;;;;;;4994571;28;20018;-58
2022/01/08 07:39:03;;;;;;;5.40;4.47;;;;;;;;;;4989533;28;20025;-57
2022/01/08 07:41:28;;;;;;;5.17;4.07;;;;;;;;;;4992423;28;20089;-55
2022/01/08 07:43:54;;;;;;;4.90;4.00;;;;;;;;;;4992856;28;20260;-53
2022/01/08 07:46:19;;;;;;;4.55;3.60;;;;;;;;;;4990489;28;20802;-54
2022/01/08 07:48:45;;;;;;;4.50;3.53;;;;;;;;;;4996047;28;20018;-56
2022/01/08 07:51:10;;;;;;;4.25;3.40;;;;;;;;;;5003958;28;20109;-53
2022/01/08 07:53:35;;;;;;;4.00;3.15;;;;;;;;;;4993138;28;20466;-56
2022/01/08 07:56:00;;;;;;;4.97;3.43;;;;;;;;;;5004230;28;20029;-58
2022/01/08 07:58:26;;;;;;;4.30;3.37;;;;;;;;;;4996847;28;20690;-57
2022/01/08 08:00:53;;;;;;;4.50;3.30;;;;;;;;;;4992445;28;20200;-56
2022/01/08 08:03:18;;;;;;;4.10;3.00;;;;;;;;;;4989624;28;21138;-53
2022/01/08 08:05:44;;;;;;;4.23;3.50;;;;;;;;;;4994236;28;20034;-60
2022/01/08 08:08:09;;;;;;;4.15;3.30;;;;;;;;;;4989556;28;20029;-54
2022/01/08 08:10:34;;;;;;;4.47;3.00;;;;;;;;;;4989823;28;20102;-59
2022/01/08 08:13:00;;;;;;;4.10;3.17;;;;;;;;;;4998591;28;20098;-52
2022/01/08 08:15:25;;;;;;;4.43;3.42;;;;;;;;;;5004656;28;20026;-60
2022/01/08 08:17:50;;;;;;;3.67;2.97;;;;;;;;;;5001796;28;20010;-53
2022/01/08 08:20:15;;;;;;;3.50;3.20;;;;;;;;;;4999575;28;20009;-56
2022/01/08 08:22:41;;;;;;;3.37;2.83;;;;;;;;;;4989187;28;20038;-56
2022/01/08 08:25:07;;;;;;;3.60;2.72;;;;;;;;;;4987613;28;20129;-55
2022/01/08 08:27:32;;;;;;;4.55;3.03;;;;;;;;;;4991212;28;20030;-54
2022/01/08 08:29:57;;;;;;;3.60;2.93;;;;;;;;;;4987071;28;20409;-55
2022/01/08 08:32:22;;;;;;;3.53;2.80;;;;;;;;;;4988434;28;20364;-57
2022/01/08 08:34:50;;;;;;;4.07;2.90;;;;;;;;;;4996420;28;20022;-56
2022/01/08 08:37:15;;;;;;;3.38;2.50;;;;;;;;;;4990546;28;20022;-57
2022/01/08 08:39:41;;;;;;;3.30;2.70;;;;;;;;;;4996841;28;20472;-58
2022/01/08 08:42:06;;;;;;;3.90;2.97;;;;;;;;;;4987197;28;20482;-53
2022/01/08 08:44:31;;;;;;;3.80;2.80;;;;;;;;;;4987517;28;20500;-57
2022/01/08 08:46:56;;;;;;;2.77;2.20;;;;;;;;;;4989720;28;20363;-54
2022/01/08 08:49:22;;;;;;;3.45;2.40;;;;;;;;;;4998084;28;20280;-54
2022/01/08 08:51:48;;;;;;;3.58;2.70;;;;;;;;;;4998701;28;20101;-54
2022/01/08 08:54:13;;;;;;;3.57;2.23;;;;;;;;;;5000592;28;20021;-53
2022/01/08 08:56:38;;;;;;;3.17;2.10;;;;;;;;;;4999114;28;20834;-52
2022/01/08 08:59:04;;;;;;;3.42;2.35;;;;;;;;;;5005494;28;20276;-59
2022/01/08 09:01:29;;;;;;;3.92;2.53;;;;;;;;;;5005309;28;20037;-59
2022/01/08 09:03:54;;;;;;;4.60;2.13;;;;;;;;;;4994011;28;20500;-58
2022/01/08 09:06:20;;;;;;;2.88;1.92;;;;;;;;;;5005225;28;20303;-56
2022/01/08 09:08:45;;;;;;;3.25;2.00;;;;;;;;;;5004995;28;20493;-57
2022/01/08 09:11:10;;;;;;;3.17;2.40;;;;;;;;;;5005063;28;20032;-55
2022/01/08 09:13:35;;;;;;;4.23;1.90;;;;;;;;;;4999070;28;20272;-57
2022/01/08 09:16:01;;;;;;;2.97;1.97;;;;;;;;;;4991161;28;20157;-60
2022/01/08 09:18:26;;;;;;;3.00;2.00;;;;;;;;;;5003955;28;20360;-60
2022/01/08 09:20:51;;;;;;;4.70;1.90;;;;;;;;;;5004542;28;20060;-58
2022/01/08 09:23:16;;;;;;;4.97;2.60;;;;;;;;;;5003873;28;20089;-58
2022/01/08 09:25:41;;;;;;;3.65;2.17;;;;;;;;;;5004874;28;20304;-58
2022/01/08 09:28:07;;;;;;;2.57;1.97;;;;;;;;;;5004869;28;20061;-58
2022/01/08 09:30:32;;;;;;;2.73;1.80;;;;;;;;;;4992965;28;20277;-58
2022/01/08 09:32:57;;;;;;;5.93;2.10;;;;;;;;;;4986335;28;20679;-54
2022/01/08 09:35:22;;;;;;;3.10;2.00;;;;;;;;;;4985546;28;20595;-52
2022/01/08 09:37:48;;;;;;;3.28;1.73;;;;;;;;;;4999376;28;20269;-55
2022/01/08 09:40:14;;;;;;;3.15;2.10;;;;;;;;;;4985705;28;20034;-56
2022/01/08 09:42:40;;;;;;;2.50;1.75;;;;;;;;;;4985642;28;20442;-60
2022/01/08 09:45:05;;;;;;;3.33;2.00;;;;;;;;;;4985798;28;20034;-58
2022/01/08 09:47:30;;;;;;;3.17;1.98;;;;;;;;;;5003128;28;20412;-56
2022/01/08 09:49:56;;;;;;;2.60;1.80;;;;;;;;;;4991825;28;20064;-59
2022/01/08 09:52:21;;;;;;;2.70;1.70;;;;;;;;;;4986484;28;20065;-59
2022/01/08 09:54:46;;;;;;;2.93;1.90;;;;;;;;;;4986046;28;20030;-55
2022/01/08 09:57:11;;;;;;;3.63;1.75;;;;;;;;;;4985045;28;20033;-53
2022/01/08 09:59:37;;;;;;;2.70;1.90;;;;;;;;;;4988786;28;20038;-57
2022/01/08 10:02:02;;;;;;;3.70;1.70;;;;;;;;;;4986476;28;20170;-58
2022/01/08 10:04:35;;;;;;;2.97;1.90;;;;;;;;;;4986218;28;20300;-57
2022/01/08 10:07:32;;;;;;;3.55;1.90;;;;;;;;;;4986432;28;20049;-59
2022/01/08 10:09:57;;;;;;;3.40;2.35;;;;;;;;;;4980932;28;20092;-57
2022/01/08 10:12:35;;;;;;;3.17;1.70;;;;;;;;;;4995562;28;20504;-58
2022/01/08 10:17:44;;;;;;;2.67;1.75;;;;;;;;;;4997901;28;20032;-55
2022/01/08 10:20:09;;;;;;;2.75;1.80;;;;;;;;;;5004157;28;20112;-57
2022/01/08 10:22:34;;;;;;;3.27;1.90;;;;;;;;;;5002897;28;20121;-51
2022/01/08 10:25:10;;;;;;;2.40;1.80;;;;;;;;;;5002642;28;20069;-54
2022/01/08 10:27:35;;;;;;;3.78;1.83;;;;;;;;;;5003886;28;20123;-55
2022/01/08 10:30:00;;;;;;;3.55;2.20;;;;;;;;;;5004122;28;20449;-54
2022/01/08 10:32:26;;;;;;;3.90;1.87;;;;;;;;;;5002150;28;20021;-56
2022/01/08 10:34:51;;;;;;;3.42;1.98;;;;;;;;;;5003948;28;20052;-58
2022/01/08 10:37:16;;;;;;;2.90;2.47;;;;;;;;;;5002890;28;20133;-58
2022/01/08 10:39:41;;;;;;;3.83;2.63;;;;;;;;;;5004251;28;20168;-56
2022/01/08 10:42:09;;;;;;;3.23;2.27;;;;;;;;;;5004234;28;20045;-58
2022/01/08 10:44:35;;;;;;;3.40;2.00;;;;;;;;;;4990539;28;20030;-57
2022/01/08 10:47:02;;;;;;;3.27;1.90;;;;;;;;;;4984594;28;20029;-55
2022/01/08 10:49:46;;;;;;;5.15;2.05;;;;;;;;;;4985062;28;20021;-60
2022/01/08 10:52:12;;;;;;;4.80;2.10;;;;;;;;;;5003613;28;20394;-56
2022/01/08 10:54:38;;;;;;;2.88;1.83;;;;;;;;;;4999299;28;20037;-58
2022/01/08 10:57:06;;;;;;;3.65;1.92;;;;;;;;;;4994099;28;20018;-59
2022/01/08 10:59:31;;;;;;;2.70;1.67;;;;;;;;;;4992834;28;20652;-59
2022/01/08 11:02:00;;;;;;;3.70;1.70;;;;;;;;;;4989247;28;20022;-55
2022/01/08 11:04:46;;;;;;;4.05;1.65;;;;;;;;;;4999592;28;20033;-54
2022/01/08 11:07:18;;;;;;;2.55;1.60;;;;;;;;;;4983854;28;20014;-52
2022/01/08 11:09:47;;;;;;;2.67;1.63;;;;;;;;;;4996503;28;20034;-58
2022/01/08 11:12:14;;;;;;;2.47;1.63;;;;;;;;;;4989322;28;20034;-57
2022/01/08 11:15:01;;;;;;;2.85;1.70;;;;;;;;;;4998615;28;20398;-57
2022/01/08 11:17:36;;;;;;;2.83;1.75;;;;;;;;;;5003379;28;20053;-54
2022/01/08 11:20:04;;;;;;;2.38;1.67;;;;;;;;;;5003712;28;20026;-55
2022/01/08 11:22:30;;;;;;;2.72;1.70;;;;;;;;;;5003438;28;20080;-54
2022/01/08 11:24:57;;;;;;;2.65;1.63;;;;;;;;;;5002250;28;20061;-57
2022/01/08 11:27:43;;;;;;;2.65;1.70;;;;;;;;;;5003478;28;20029;-58
2022/01/08 11:30:09;;;;;;;2.25;1.58;;;;;;;;;;5003972;28;20014;-58
2022/01/08 11:32:35;;;;;;;3.30;1.60;;;;;;;;;;5003738;28;20022;-57
2022/01/08 11:35:00;;;;;;;2.35;1.45;;;;;;;;;;4999122;28;20037;-55
2022/01/08 11:37:26;;;;;;;2.22;1.60;;;;;;;;;;4986405;28;20022;-57
2022/01/08 11:39:52;;;;;;;2.38;1.50;;;;;;;;;;4983664;28;20053;-54
2022/01/08 11:42:20;;;;;;;3.60;1.80;;;;;;;;;;4988753;28;20022;-59
2022/01/08 11:44:46;;;;;;;2.03;1.30;;;;;;;;;;4987312;28;20783;-58
2022/01/08 11:47:12;;;;;;;2.42;1.75;;;;;;;;;;5003444;28;20129;-56
2022/01/08 11:49:37;;;;;;;2.40;1.50;;;;;;;;;;4986603;28;20026;-58
2022/01/08 11:52:18;;;;;;;1.90;1.40;;;;;;;;;;4991816;28;20037;-59
2022/01/08 11:54:44;;;;;;;2.20;1.50;;;;;;;;;;5006949;28;20300;-56
2022/01/08 11:57:19;;;;;;;2.65;1.58;;;;;;;;;;5008206;28;20488;-58
2022/01/08 11:59:45;;;;;;;2.88;1.70;;;;;;;;;;5006968;28;20014;-59
2022/01/08 12:02:11;;;;;;;2.20;1.40;;;;;;;;;;4989340;28;20018;-61
2022/01/08 12:04:36;;;;;;;2.70;1.65;;;;;;;;;;4990447;28;20037;-57
2022/01/08 12:07:21;;;;;;;2.60;1.50;;;;;;;;;;4987929;28;20902;-53
2022/01/08 12:09:46;;;;;;;2.58;1.67;;;;;;;;;;4988650;28;20261;-56
2022/01/08 12:12:11;;;;;;;2.30;1.40;;;;;;;;;;4992519;28;20052;-61
2022/01/08 12:14:36;;;;;;;2.70;1.50;;;;;;;;;;5002348;28;20033;-53
2022/01/08 12:17:12;;;;;;;2.60;1.33;;;;;;;;;;5007437;28;20026;-56
2022/01/08 12:19:38;;;;;;;2.70;1.50;;;;;;;;;;4990232;28;20026;-56
2022/01/08 12:22:15;;;;;;;1.90;1.40;;;;;;;;;;4995184;28;20062;-60
2022/01/08 12:24:41;;;;;;;2.40;1.30;;;;;;;;;;5002002;28;20180;-56
2022/01/08 12:27:18;;;;;;;2.30;1.40;;;;;;;;;;5003031;28;21163;-57
2022/01/08 12:29:43;;;;;;;2.28;1.45;;;;;;;;;;4988688;28;20276;-57
2022/01/08 12:32:28;;;;;;;2.40;1.60;;;;;;;;;;4990624;28;20050;-56
2022/01/08 12:35:01;;;;;;;1.92;1.50;;;;;;;;;;4998044;28;20022;-55
2022/01/08 12:37:37;;;;;;;2.00;1.40;;;;;;;;;;5004540;28;20025;-56
2022/01/08 12:40:02;;;;;;;2.25;1.42;;;;;;;;;;5002045;28;20061;-54
2022/01/08 12:42:27;;;;;;;3.33;1.30;;;;;;;;;;5003519;28;20041;-57
2022/01/08 12:45:02;;;;;;;2.88;1.60;;;;;;;;;;5006159;28;20472;-57
2022/01/08 12:47:40;;;;;;;3.75;1.60;;;;;;;;;;5006594;28;20040;-61
2022/01/08 12:50:18;;;;;;;2.97;1.55;;;;;;;;;;5006515;28;20018;-56
2022/01/08 12:53:02;;;;;;;2.15;1.20;;;;;;;;;;5006312;28;20033;-56
2022/01/08 12:55:27;;;;;;;2.50;1.50;;;;;;;;;;5005287;28;20022;-60
2022/01/08 12:57:52;;;;;;;2.10;1.40;;;;;;;;;;5005783;28;20087;-55
2022/01/08 13:00:17;;;;;;;3.17;1.57;;;;;;;;;;5005449;28;20269;-55
2022/01/08 13:02:46;;;;;;;2.13;1.50;;;;;;;;;;5004005;28;20281;-55
2022/01/08 13:05:12;;;;;;;1.40;1.10;;;;;;;;;;5005619;28;20087;-57
2022/01/08 13:07:46;;;;;;;2.43;1.57;;;;;;;;;;5005322;28;20268;-56
2022/01/08 13:10:11;;;;;;;2.47;1.63;;;;;;;;;;5005696;28;20021;-56
2022/01/08 13:12:36;;;;;;;3.10;1.57;;;;;;;;;;5005196;28;20026;-57
2022/01/08 13:15:02;;;;;;;2.00;1.50;;;;;;;;;;4999568;28;20032;-54
2022/01/08 13:17:27;;;;;;;2.25;1.42;;;;;;;;;;5005139;28;20124;-56
2022/01/08 13:19:59;;;;;;;2.47;1.30;;;;;;;;;;4997402;28;20527;-59
2022/01/08 13:22:26;;;;;;;2.22;1.63;;;;;;;;;;4986800;28;20257;-56
2022/01/08 13:24:52;;;;;;;2.38;1.52;;;;;;;;;;4987017;28;20499;-54
2022/01/08 13:27:20;;;;;;;2.25;1.50;;;;;;;;;;5006220;28;20025;-57
2022/01/08 13:29:45;;;;;;;2.35;1.45;;;;;;;;;;5004499;28;20463;-56
2022/01/08 13:32:12;;;;;;;3.00;1.40;;;;;;;;;;5005011;28;20088;-56
2022/01/08 13:34:37;;;;;;;2.75;1.52;;;;;;;;;;5005571;28;20029;-55
2022/01/08 13:37:02;;;;;;;3.13;1.57;;;;;;;;;;5005139;28;20052;-55
2022/01/08 13:39:34;;;;;;;2.95;1.63;;;;;;;;;;5004990;28;20034;-54
2022/01/08 13:42:08;;;;;;;2.75;1.60;;;;;;;;;;5004685;28;20026;-57
2022/01/08 13:44:34;;;;;;;1.70;1.30;;;;;;;;;;5004869;28;20439;-56
2022/01/08 13:46:59;;;;;;;2.33;1.60;;;;;;;;;;5004962;28;20032;-54
2022/01/08 13:49:24;;;;;;;3.30;1.70;;;;;;;;;;5003568;28;20112;-56
2022/01/08 13:51:49;;;;;;;2.13;1.50;;;;;;;;;;5004414;28;20105;-56
2022/01/08 13:54:15;;;;;;;2.27;1.50;;;;;;;;;;5004676;28;20025;-54
2022/01/08 13:56:42;;;;;;;2.13;1.43;;;;;;;;;;5004776;28;20504;-56
2022/01/08 13:59:08;;;;;;;2.60;1.60;;;;;;;;;;5005002;28;20021;-57
2022/01/08 14:01:41;;;;;;;2.80;1.70;;;;;;;;;;5004385;28;20064;-56
2022/01/08 14:04:06;;;;;;;2.75;1.60;;;;;;;;;;5004431;28;20021;-56
2022/01/08 14:06:31;;;;;;;3.80;1.77;;;;;;;;;;5004118;28;20038;-54
2022/01/08 14:08:59;;;;;;;4.00;1.87;;;;;;;;;;5004163;28;20072;-54
2022/01/08 14:11:24;;;;;;;4.00;2.00;;;;;;;;;;5004463;28;20117;-55
2022/01/08 14:13:54;;;;;;;3.90;1.73;;;;;;;;;;4997384;28;20097;-55
2022/01/08 14:16:27;;;;;;;3.55;2.25;;;;;;;;;;5004318;28;20829;-56
2022/01/08 14:18:52;;;;;;;3.00;1.98;;;;;;;;;;5004590;28;20065;-56
2022/01/08 14:21:18;;;;;;;3.47;1.67;;;;;;;;;;5004435;28;20057;-55
2022/01/08 14:23:43;;;;;;;3.83;1.98;;;;;;;;;;5003313;28;20061;-56
2022/01/08 14:26:14;;;;;;;4.10;2.10;;;;;;;;;;5004288;28;20049;-57
2022/01/08 14:28:39;;;;;;;2.92;1.85;;;;;;;;;;5004158;28;20029;-57
2022/01/08 14:31:12;;;;;;;2.50;1.70;;;;;;;;;;5004039;28;20030;-55
2022/01/08 14:33:57;;;;;;;3.38;2.03;;;;;;;;;;5003552;28;20030;-55
2022/01/08 14:36:22;;;;;;;2.80;1.95;;;;;;;;;;5003000;28;20552;-55
2022/01/08 14:38:50;;;;;;;3.27;2.03;;;;;;;;;;5003961;28;20100;-57
2022/01/08 14:41:29;;;;;;;3.97;2.00;;;;;;;;;;5003997;28;20030;-58
2022/01/08 14:44:01;;;;;;;3.35;2.30;;;;;;;;;;5003488;28;20018;-57
2022/01/08 14:46:26;;;;;;;3.40;1.90;;;;;;;;;;5003882;28;20042;-55
2022/01/08 14:48:52;;;;;;;3.72;2.05;;;;;;;;;;5003958;28;20026;-55
2022/01/08 14:51:18;;;;;;;3.00;2.10;;;;;;;;;;5003893;28;20037;-56
2022/01/08 14:53:43;;;;;;;4.20;2.38;;;;;;;;;;5003525;28;20026;-55
2022/01/08 14:56:08;;;;;;;3.63;1.90;;;;;;;;;;5003817;28;20118;-55
2022/01/08 14:58:35;;;;;;;4.83;2.30;;;;;;;;;;5003907;28;20285;-53
2022/01/08 15:01:01;;;;;;;3.63;2.20;;;;;;;;;;5003659;28;20092;-53
2022/01/08 15:03:26;;;;;;;8.80;2.80;;;;;;;;;;5003400;28;20056;-56